Messwerte Ohakea

Temperatur

Temperatur
°C
1574319600 20.00 20.00 14
1574323200 21.00 21.00 13
1574326800 22.00 22.00 11
1574330400 23.00 23.00
1574334000 0.00 0.00
1574337600 1.00 1.00 10
1574341200 2.00 2.00 9
1574344800 3.00 3.00 9
1574348400 4.00 4.00 11
1574352000 5.00 5.00 11
1574355600 6.00 6.00 11
1574359200 7.00 7.00 11
1574362800 8.00 8.00 12
1574366400 9.00 9.00
1574370000 10.00 10.00 15
1574373600 11.00 11.00 16
1574377200 12.00 12.00 17
1574380800 13.00 13.00 18
1574384400 14.00 14.00 17
1574388000 15.00 15.00 18
1574391600 16.00 16.00 17
1574395200 17.00 17.00 17
1574398800 18.00 18.00
1574402400 19.00 19.00 16

Aktuellste Messwerte

Wettercharakter
Wetter: freundlich
Temperatur
16 °C
Feuchtigkeit
70 %
Wind
20 km/hWindrichtung: West
Luftdruck
1019 hPa
Messzeit: 22. November 2019, 19.00Datenquelle: METAR

Weitere Messstationen in der Nähe

Messstation Temperatur Entfernung
Paraparaumu 15 °C 84 km
Wellington 15 °C 134 km
New Plymouth 16 °C 166 km
Rotorua 19 °C 245 km
Gisborne 21 °C 281 km
Tauranga 20 °C 290 km
Auckland 16 °C 357 km

Wind

Windrichtung Böen Mittelwind
° km/h km/h
1574319600 20.00 19.00 - 20.00 280° 15
1574323200 21.00 20.00 - 21.00 330° 5
1574326800 22.00 21.00 - 22.00 360° 10
1574330400 23.00 22.00 - 23.00
1574334000 0.00 23.00 - 0.00
1574337600 1.00 0.00 - 1.00 330° 5
1574341200 2.00 1.00 - 2.00 10° 5
1574344800 3.00 2.00 - 3.00 20° 10
1574348400 4.00 3.00 - 4.00 340° 15
1574352000 5.00 4.00 - 5.00 340° 20
1574355600 6.00 5.00 - 6.00 350° 20
1574359200 7.00 6.00 - 7.00 350° 20
1574362800 8.00 7.00 - 8.00 340° 20
1574366400 9.00 8.00 - 9.00
1574370000 10.00 9.00 - 10.00 310° 20
1574373600 11.00 10.00 - 11.00 300° 30
1574377200 12.00 11.00 - 12.00 290° 55 35
1574380800 13.00 12.00 - 13.00 300° 35
1574384400 14.00 13.00 - 14.00 270° 50 30
1574388000 15.00 14.00 - 15.00 280° 30
1574391600 16.00 15.00 - 16.00 270° 30
1574395200 17.00 16.00 - 17.00 270° 25
1574398800 18.00 17.00 - 18.00
1574402400 19.00 18.00 - 19.00 280° 20

Ihre Wetterstation

Fehlt Ihre Wetterstation auf unserem Portal?

Schreiben Sie an network@meteonews.ch

Klima

Wann ist es am wärmsten? Wann regnet es am wenigsten? Unsere Klimadaten geben Auskunft.